createdAt,value
2018-01-14T00:00:40.623Z,87.61
2018-01-14T00:01:40.593Z,87.61
2018-01-14T00:02:40.564Z,87.70
2018-01-14T00:03:40.686Z,87.79
2018-01-14T00:04:40.507Z,87.42
2018-01-14T00:05:40.478Z,87.89
2018-01-14T00:06:40.448Z,87.61
2018-01-14T00:07:40.421Z,87.98
2018-01-14T00:08:40.391Z,87.61
2018-01-14T00:09:40.363Z,87.70
2018-01-14T00:10:40.333Z,87.51
2018-01-14T00:11:40.305Z,87.79
2018-01-14T00:12:40.276Z,87.70
2018-01-14T00:13:40.247Z,88.27
2018-01-14T00:14:40.368Z,88.17
2018-01-14T00:15:40.189Z,86.66
2018-01-14T00:16:40.161Z,86.76
2018-01-14T00:17:40.132Z,87.42
2018-01-14T00:18:40.105Z,87.79
2018-01-14T00:19:40.074Z,87.42
2018-01-14T00:20:40.195Z,87.79
2018-01-14T00:21:40.017Z,87.70
2018-01-14T00:22:39.988Z,87.79
2018-01-14T00:23:39.960Z,87.23
2018-01-14T00:24:39.931Z,87.32
2018-01-14T00:25:40.001Z,86.66
2018-01-14T00:26:39.873Z,86.38
2018-01-14T00:27:39.844Z,86.19
2018-01-14T00:28:39.816Z,85.72
2018-01-14T00:29:39.786Z,86.19
2018-01-14T00:30:39.757Z,86.38
2018-01-14T00:31:39.728Z,86.19
2018-01-14T00:32:39.700Z,85.62
2018-01-14T00:33:39.669Z,85.81
2018-01-14T00:34:39.642Z,86.10
2018-01-14T00:35:39.612Z,86.47
2018-01-14T00:36:39.589Z,86.76
2018-01-14T00:37:39.553Z,87.61
2018-01-14T00:38:39.525Z,88.27
2018-01-14T00:39:39.498Z,87.79
2018-01-14T00:40:39.567Z,87.32
2018-01-14T00:41:39.439Z,87.23
2018-01-14T00:42:39.413Z,88.27
2018-01-14T00:43:39.380Z,88.08
2018-01-14T00:44:39.362Z,88.46
2018-01-14T00:45:39.573Z,88.84
2018-01-14T00:46:39.294Z,89.03
2018-01-14T00:47:39.268Z,88.46
2018-01-14T00:48:39.237Z,88.84
2018-01-14T00:49:39.207Z,88.74
2018-01-14T00:50:39.180Z,88.36
2018-01-14T00:51:39.151Z,88.17
2018-01-14T00:52:39.122Z,88.65
2018-01-14T00:53:39.093Z,88.84
2018-01-14T00:54:39.063Z,89.22
2018-01-14T00:55:39.038Z,88.65
2018-01-14T00:56:39.052Z,88.27
2018-01-14T00:57:38.978Z,88.17
2018-01-14T00:58:38.950Z,87.98
2018-01-14T00:59:38.921Z,88.46
2018-01-14T01:00:38.892Z,87.98
2018-01-14T01:01:38.864Z,87.70
2018-01-14T01:02:38.834Z,87.70
2018-01-14T01:03:38.805Z,87.13
2018-01-14T01:04:38.778Z,87.70
2018-01-14T01:05:38.748Z,87.70
2018-01-14T01:06:38.720Z,87.79
2018-01-14T01:07:38.691Z,89.03
2018-01-14T01:08:38.662Z,89.22
2018-01-14T01:09:38.633Z,87.98
2018-01-14T01:10:38.605Z,88.27
2018-01-14T01:11:38.825Z,87.51
2018-01-14T01:12:38.548Z,87.79
2018-01-14T01:13:38.518Z,88.46
2018-01-14T01:14:38.489Z,87.89
2018-01-14T01:15:38.463Z,87.61
2018-01-14T01:16:38.432Z,87.89
2018-01-14T01:17:38.402Z,88.46
2018-01-14T01:18:38.375Z,88.46
2018-01-14T01:19:38.345Z,88.74
2018-01-14T01:20:38.317Z,88.65
2018-01-14T01:21:38.287Z,88.08
2018-01-14T01:22:38.265Z,89.03
2018-01-14T01:23:38.232Z,88.36
2018-01-14T01:24:38.203Z,88.55
2018-01-14T01:25:38.174Z,88.55
2018-01-14T01:26:38.145Z,88.36
2018-01-14T01:27:38.116Z,88.17
2018-01-14T01:28:38.089Z,87.42
2018-01-14T01:29:38.059Z,87.98
2018-01-14T01:30:38.031Z,88.65
2018-01-14T01:31:38.003Z,88.46
2018-01-14T01:32:37.973Z,87.61
2018-01-14T01:33:37.944Z,87.89
2018-01-14T01:34:37.916Z,88.17
2018-01-14T01:35:37.887Z,88.65
2018-01-14T01:36:37.858Z,88.55
2018-01-14T01:37:37.830Z,88.46
2018-01-14T01:38:37.801Z,88.17
2018-01-14T01:39:37.772Z,87.61
2018-01-14T01:40:37.745Z,87.61
2018-01-14T01:41:37.715Z,86.76
2018-01-14T01:42:37.686Z,86.19
2018-01-14T01:43:37.663Z,86.94
2018-01-14T01:44:37.628Z,86.94
2018-01-14T01:45:37.599Z,86.66
2018-01-14T01:46:37.572Z,87.61
2018-01-14T01:47:37.541Z,87.61
2018-01-14T01:48:37.514Z,87.61
2018-01-14T01:49:37.634Z,87.79
2018-01-14T01:50:37.455Z,87.61
2018-01-14T01:51:37.426Z,87.42
2018-01-14T01:52:37.397Z,87.98
2018-01-14T01:53:37.368Z,86.94
2018-01-14T01:54:37.339Z,87.89
2018-01-14T01:55:37.310Z,86.76
2018-01-14T01:56:37.282Z,86.57
2018-01-14T01:57:37.252Z,86.85
2018-01-14T01:58:37.223Z,86.76
2018-01-14T01:59:37.449Z,87.13
2018-01-14T02:00:37.166Z,86.66
2018-01-14T02:01:37.137Z,86.66
2018-01-14T02:02:37.107Z,86.19
2018-01-14T02:03:37.078Z,86.00
2018-01-14T02:04:37.300Z,86.10
2018-01-14T02:05:37.020Z,86.94
2018-01-14T02:06:36.992Z,87.61
2018-01-14T02:07:36.963Z,87.51
2018-01-14T02:08:36.934Z,87.61
2018-01-14T02:09:36.904Z,87.79
2018-01-14T02:10:36.876Z,87.70
2018-01-14T02:11:36.846Z,87.42
2018-01-14T02:12:36.818Z,88.08
2018-01-14T02:13:36.789Z,88.08
2018-01-14T02:14:36.760Z,87.79
2018-01-14T02:15:36.980Z,87.61
2018-01-14T02:16:36.702Z,88.08
2018-01-14T02:17:36.673Z,87.79
2018-01-14T02:18:36.648Z,87.32
2018-01-14T02:19:36.615Z,88.08
2018-01-14T02:20:37.038Z,87.51
2018-01-14T02:21:36.557Z,87.04
2018-01-14T02:22:36.528Z,86.19
2018-01-14T02:23:36.500Z,85.81
2018-01-14T02:24:36.471Z,85.62
2018-01-14T02:25:36.441Z,85.15
2018-01-14T02:26:36.413Z,84.86
2018-01-14T02:27:36.384Z,86.10
2018-01-14T02:28:36.355Z,86.76
2018-01-14T02:29:36.324Z,86.66
2018-01-14T02:30:36.297Z,86.85
2018-01-14T02:31:36.268Z,86.94
2018-01-14T02:32:36.238Z,86.94
2018-01-14T02:33:36.208Z,86.38
2018-01-14T02:34:36.183Z,86.66
2018-01-14T02:35:36.152Z,87.42
2018-01-14T02:36:36.123Z,87.32
2018-01-14T02:37:36.094Z,87.04
2018-01-14T02:38:36.065Z,87.42
2018-01-14T02:39:36.036Z,86.76
2018-01-14T02:40:36.009Z,86.94
2018-01-14T02:41:35.978Z,87.42
2018-01-14T02:42:35.949Z,87.32
2018-01-14T02:43:35.919Z,86.85
2018-01-14T02:44:35.891Z,86.66
2018-01-14T02:45:35.862Z,86.94
2018-01-14T02:46:35.834Z,86.94
2018-01-14T02:47:35.809Z,86.19
2018-01-14T02:48:35.777Z,85.62
2018-01-14T02:49:35.746Z,84.86
2018-01-14T02:50:35.717Z,85.24
2018-01-14T02:51:35.688Z,85.15
2018-01-14T02:52:35.660Z,84.96
2018-01-14T02:53:35.631Z,85.15
2018-01-14T02:54:35.602Z,84.68
2018-01-14T02:55:35.580Z,85.15
2018-01-14T02:56:35.544Z,85.15
2018-01-14T02:57:35.514Z,85.34
2018-01-14T02:58:35.485Z,86.29
2018-01-14T02:59:35.457Z,85.34
2018-01-14T03:00:35.428Z,85.24
2018-01-14T03:01:35.399Z,84.49
2018-01-14T03:02:35.371Z,84.49
2018-01-14T03:03:35.342Z,84.68
2018-01-14T03:04:35.312Z,84.49
2018-01-14T03:05:35.282Z,85.05
2018-01-14T03:06:35.253Z,85.05
2018-01-14T03:07:35.224Z,84.68
2018-01-14T03:08:35.196Z,84.86
2018-01-14T03:09:35.166Z,85.34
2018-01-14T03:10:35.238Z,85.34
2018-01-14T03:11:35.109Z,85.62
2018-01-14T03:12:35.080Z,86.19
2018-01-14T03:13:35.050Z,86.94
2018-01-14T03:14:35.022Z,86.29
2018-01-14T03:15:35.144Z,86.29
2018-01-14T03:16:34.964Z,86.85
2018-01-14T03:17:34.934Z,86.19
2018-01-14T03:18:34.905Z,86.66
2018-01-14T03:19:34.878Z,86.94
2018-01-14T03:20:34.849Z,86.38
2018-01-14T03:21:34.820Z,86.66
2018-01-14T03:22:34.790Z,86.85
2018-01-14T03:23:34.762Z,86.57
2018-01-14T03:24:34.734Z,86.66
2018-01-14T03:25:35.006Z,86.94
2018-01-14T03:26:34.677Z,86.94
2018-01-14T03:27:34.649Z,87.04
2018-01-14T03:28:34.619Z,86.29
2018-01-14T03:29:34.592Z,85.53
2018-01-14T03:30:34.566Z,85.24
2018-01-14T03:31:34.534Z,85.43
2018-01-14T03:32:34.505Z,85.24
2018-01-14T03:33:34.476Z,85.53
2018-01-14T03:34:34.446Z,86.10
2018-01-14T03:35:34.417Z,85.72
2018-01-14T03:36:34.389Z,86.57
2018-01-14T03:37:34.559Z,86.94
2018-01-14T03:38:34.332Z,86.66
2018-01-14T03:39:34.305Z,85.24
2018-01-14T03:40:34.274Z,85.05
2018-01-14T03:41:34.246Z,84.39
2018-01-14T03:42:34.217Z,84.58
2018-01-14T03:43:34.189Z,84.11
2018-01-14T03:44:34.159Z,84.68
2018-01-14T03:45:34.129Z,84.68
2018-01-14T03:46:34.101Z,85.15
2018-01-14T03:47:34.073Z,84.96
2018-01-14T03:48:34.045Z,85.15
2018-01-14T03:49:34.015Z,85.05
2018-01-14T03:50:33.985Z,85.43
2018-01-14T03:51:33.958Z,85.43
2018-01-14T03:52:33.928Z,84.77
2018-01-14T03:53:33.900Z,85.05
2018-01-14T03:54:33.870Z,84.77
2018-01-14T03:55:33.843Z,85.72
2018-01-14T03:56:33.814Z,84.68
2018-01-14T03:57:33.784Z,83.92
2018-01-14T03:58:33.755Z,83.92
2018-01-14T03:59:33.727Z,84.39
2018-01-14T04:00:33.698Z,83.83
2018-01-14T04:01:33.667Z,84.30
2018-01-14T04:02:33.739Z,84.11
2018-01-14T04:03:33.611Z,83.73
2018-01-14T04:04:33.581Z,84.30
2018-01-14T04:05:33.551Z,84.77
2018-01-14T04:06:33.522Z,84.58
2018-01-14T04:07:33.644Z,84.39
2018-01-14T04:08:33.465Z,84.20
2018-01-14T04:09:33.436Z,83.64
2018-01-14T04:10:33.406Z,84.01
2018-01-14T04:11:33.378Z,83.83
2018-01-14T04:12:33.351Z,83.83
2018-01-14T04:13:33.319Z,83.92
2018-01-14T04:14:33.291Z,83.64
2018-01-14T04:15:33.262Z,83.64
2018-01-14T04:16:33.233Z,83.83
2018-01-14T04:17:33.208Z,83.92
2018-01-14T04:18:33.174Z,83.92
2018-01-14T04:19:33.146Z,84.11
2018-01-14T04:20:33.119Z,84.20
2018-01-14T04:21:33.086Z,83.92
2018-01-14T04:22:33.058Z,84.30
2018-01-14T04:23:33.029Z,84.30
2018-01-14T04:24:33.001Z,84.20
2018-01-14T04:25:32.971Z,84.11
2018-01-14T04:26:32.981Z,84.20
2018-01-14T04:27:32.912Z,84.20
2018-01-14T04:28:32.884Z,84.20
2018-01-14T04:29:32.855Z,84.20
2018-01-14T04:30:32.826Z,84.30
2018-01-14T04:31:32.797Z,84.68
2018-01-14T04:32:32.767Z,84.20
2018-01-14T04:33:32.738Z,84.77
2018-01-14T04:34:32.708Z,84.30
2018-01-14T04:35:32.681Z,84.30
2018-01-14T04:36:32.652Z,85.05
2018-01-14T04:37:32.621Z,84.96
2018-01-14T04:38:32.593Z,84.58
2018-01-14T04:39:32.565Z,85.24
2018-01-14T04:40:32.534Z,85.34
2018-01-14T04:41:32.505Z,85.62
2018-01-14T04:42:32.476Z,85.43
2018-01-14T04:43:32.449Z,86.10
2018-01-14T04:44:32.420Z,85.34
2018-01-14T04:45:32.389Z,85.15
2018-01-14T04:46:32.360Z,84.86
2018-01-14T04:47:32.333Z,85.05
2018-01-14T04:48:32.303Z,85.43
2018-01-14T04:49:32.274Z,85.62
2018-01-14T04:50:32.245Z,85.72
2018-01-14T04:51:32.216Z,85.24
2018-01-14T04:52:32.439Z,85.15
2018-01-14T04:53:32.159Z,84.58
2018-01-14T04:54:32.131Z,85.05
2018-01-14T04:55:32.100Z,84.96
2018-01-14T04:56:32.072Z,84.39
2018-01-14T04:57:32.042Z,85.15
2018-01-14T04:58:32.015Z,84.86
2018-01-14T04:59:31.985Z,84.01
2018-01-14T05:00:31.959Z,84.30
2018-01-14T05:01:31.927Z,84.86
2018-01-14T05:02:31.899Z,84.68
2018-01-14T05:03:31.869Z,84.58
2018-01-14T05:04:31.841Z,84.30
2018-01-14T05:05:31.812Z,84.01
2018-01-14T05:06:31.783Z,85.34
2018-01-14T05:07:31.753Z,84.49
2018-01-14T05:08:31.724Z,84.96
2018-01-14T05:09:31.696Z,84.86
2018-01-14T05:10:31.667Z,84.58
2018-01-14T05:11:31.637Z,84.49
2018-01-14T05:12:31.610Z,83.54
2018-01-14T05:13:32.380Z,83.64
2018-01-14T05:14:31.550Z,83.83
2018-01-14T05:15:31.522Z,83.26
2018-01-14T05:16:31.493Z,82.98
2018-01-14T05:17:31.466Z,82.50
2018-01-14T05:18:31.435Z,82.79
2018-01-14T05:19:31.405Z,83.17
2018-01-14T05:20:31.377Z,83.17
2018-01-14T05:21:31.345Z,83.17
2018-01-14T05:22:31.317Z,83.73
2018-01-14T05:23:31.288Z,84.20
2018-01-14T05:24:31.259Z,84.30
2018-01-14T05:25:31.230Z,83.73
2018-01-14T05:26:31.201Z,83.92
2018-01-14T05:27:31.172Z,84.30
2018-01-14T05:28:31.143Z,84.39
2018-01-14T05:29:31.113Z,84.68
2018-01-14T05:30:31.083Z,84.86
2018-01-14T05:31:31.056Z,85.15
2018-01-14T05:32:31.026Z,84.30
2018-01-14T05:33:30.997Z,83.92
2018-01-14T05:34:31.117Z,83.64
2018-01-14T05:35:30.939Z,83.26
2018-01-14T05:36:30.909Z,83.17
2018-01-14T05:37:30.880Z,83.45
2018-01-14T05:38:30.852Z,82.69
2018-01-14T05:39:30.923Z,82.69
2018-01-14T05:40:30.793Z,83.17
2018-01-14T05:41:30.764Z,82.88
2018-01-14T05:42:30.734Z,82.88
2018-01-14T05:43:30.708Z,83.45
2018-01-14T05:44:30.678Z,82.41
2018-01-14T05:45:30.646Z,82.50
2018-01-14T05:46:30.620Z,82.69
2018-01-14T05:47:30.592Z,82.79
2018-01-14T05:48:30.561Z,83.17
2018-01-14T05:49:30.531Z,83.17
2018-01-14T05:50:30.502Z,83.83
2018-01-14T05:51:30.476Z,84.20
2018-01-14T05:52:30.444Z,83.73
2018-01-14T05:53:30.414Z,84.30
2018-01-14T05:54:30.386Z,83.92
2018-01-14T05:55:30.358Z,83.92
2018-01-14T05:56:30.329Z,84.30
2018-01-14T05:57:30.299Z,84.20
2018-01-14T05:58:30.271Z,85.05
2018-01-14T05:59:30.242Z,84.01
2018-01-14T06:00:30.214Z,83.07
2018-01-14T06:01:30.184Z,82.03
2018-01-14T06:02:30.155Z,81.37
2018-01-14T06:03:30.125Z,82.22
2018-01-14T06:04:30.097Z,82.12
2018-01-14T06:05:30.068Z,82.22
2018-01-14T06:06:30.039Z,82.69
2018-01-14T06:07:30.011Z,82.88
2018-01-14T06:08:29.982Z,82.12
2018-01-14T06:09:29.952Z,82.69
2018-01-14T06:10:29.923Z,82.03
2018-01-14T06:11:29.894Z,82.31
2018-01-14T06:12:29.865Z,82.03
2018-01-14T06:13:29.838Z,82.03
2018-01-14T06:14:29.807Z,82.41
2018-01-14T06:15:29.778Z,82.88
2018-01-14T06:16:29.750Z,82.88
2018-01-14T06:17:29.820Z,83.07
2018-01-14T06:18:29.692Z,83.26
2018-01-14T06:19:29.664Z,83.73
2018-01-14T06:20:29.634Z,82.60
2018-01-14T06:21:29.605Z,82.69
2018-01-14T06:22:29.878Z,82.69
2018-01-14T06:23:29.548Z,82.79
2018-01-14T06:24:29.521Z,83.54
2018-01-14T06:25:29.491Z,82.79
2018-01-14T06:26:29.462Z,83.26
2018-01-14T06:27:29.433Z,82.69
2018-01-14T06:28:29.405Z,83.17
2018-01-14T06:29:29.375Z,83.45
2018-01-14T06:30:29.346Z,82.79
2018-01-14T06:31:29.319Z,83.26
2018-01-14T06:32:29.540Z,82.98
2018-01-14T06:33:29.260Z,82.88
2018-01-14T06:34:29.233Z,82.79
2018-01-14T06:35:29.207Z,83.17
2018-01-14T06:36:29.175Z,82.88
2018-01-14T06:37:29.146Z,82.79
2018-01-14T06:38:29.116Z,82.03
2018-01-14T06:39:29.088Z,82.31
2018-01-14T06:40:29.059Z,82.60
2018-01-14T06:41:29.031Z,82.31
2018-01-14T06:42:29.007Z,82.69
2018-01-14T06:43:28.973Z,82.69
2018-01-14T06:44:28.944Z,82.69
2018-01-14T06:45:28.914Z,82.31
2018-01-14T06:46:28.886Z,82.22
2018-01-14T06:47:28.857Z,82.88
2018-01-14T06:48:28.827Z,83.36
2018-01-14T06:49:28.798Z,82.98
2018-01-14T06:50:28.770Z,83.45
2018-01-14T06:51:28.740Z,83.54
2018-01-14T06:52:28.713Z,83.92
2018-01-14T06:53:28.682Z,83.73
2018-01-14T06:54:28.657Z,83.92
2018-01-14T06:55:28.626Z,84.30
2018-01-14T06:56:28.597Z,84.01
2018-01-14T06:57:28.566Z,84.77
2018-01-14T06:58:28.539Z,85.15
2018-01-14T06:59:28.509Z,85.05
2018-01-14T07:00:28.482Z,84.58
2018-01-14T07:01:28.452Z,85.15
2018-01-14T07:02:28.424Z,85.15
2018-01-14T07:03:28.645Z,85.43
2018-01-14T07:04:28.366Z,84.96
2018-01-14T07:05:28.336Z,85.05
2018-01-14T07:06:28.307Z,85.15
2018-01-14T07:07:28.279Z,85.34
2018-01-14T07:08:28.252Z,85.34
2018-01-14T07:09:28.227Z,85.62
2018-01-14T07:10:28.193Z,86.10
2018-01-14T07:11:28.163Z,85.81
2018-01-14T07:12:28.134Z,86.29
2018-01-14T07:13:28.105Z,86.38
2018-01-14T07:14:28.076Z,86.38
2018-01-14T07:15:28.049Z,86.85
2018-01-14T07:16:28.020Z,86.66
2018-01-14T07:17:28.139Z,86.38
2018-01-14T07:18:27.960Z,86.94
2018-01-14T07:19:27.933Z,87.61
2018-01-14T07:20:27.903Z,86.66
2018-01-14T07:21:27.874Z,87.13
2018-01-14T07:22:27.845Z,87.61
2018-01-14T07:23:27.816Z,87.61
2018-01-14T07:24:27.787Z,87.70
2018-01-14T07:25:27.767Z,87.98
2018-01-14T07:26:27.729Z,87.79
2018-01-14T07:27:28.601Z,87.79
2018-01-14T07:28:27.672Z,87.61
2018-01-14T07:29:27.644Z,87.13
2018-01-14T07:30:27.612Z,87.89
2018-01-14T07:31:27.584Z,87.61
2018-01-14T07:32:27.556Z,87.32
2018-01-14T07:33:27.525Z,87.89
2018-01-14T07:34:27.497Z,87.70
2018-01-14T07:35:27.467Z,87.70
2018-01-14T07:36:27.438Z,87.42
2018-01-14T07:37:27.409Z,87.98
2018-01-14T07:38:27.380Z,87.98
2018-01-14T07:39:27.351Z,87.98
2018-01-14T07:40:27.321Z,88.27
2018-01-14T07:41:27.292Z,88.46
2018-01-14T07:42:27.263Z,88.89
2018-01-14T07:43:27.233Z,88.60
2018-01-14T07:44:27.205Z,88.60
2018-01-14T07:45:27.174Z,88.98
2018-01-14T07:46:27.146Z,89.64
2018-01-14T07:47:27.217Z,89.07
2018-01-14T07:48:27.086Z,89.36
2018-01-14T07:49:27.056Z,88.98
2018-01-14T07:50:27.028Z,89.36
2018-01-14T07:51:26.998Z,90.02
2018-01-14T07:52:26.970Z,89.92
2018-01-14T07:53:27.090Z,90.02
2018-01-14T07:54:26.960Z,89.73
2018-01-14T07:55:26.885Z,90.68
2018-01-14T07:56:26.851Z,90.68
2018-01-14T07:57:26.822Z,90.30
2018-01-14T07:58:26.792Z,90.59
2018-01-14T07:59:26.764Z,89.92
2018-01-14T08:00:26.735Z,90.21
2018-01-14T08:01:26.704Z,90.59
2018-01-14T08:02:26.674Z,90.30
2018-01-14T08:03:26.645Z,90.11
2018-01-14T08:04:26.619Z,90.59
2018-01-14T08:05:26.597Z,90.59
2018-01-14T08:06:26.558Z,90.11
2018-01-14T08:07:26.528Z,90.30
2018-01-14T08:08:26.499Z,91.06
2018-01-14T08:09:26.468Z,90.59
2018-01-14T08:10:26.438Z,90.59
2018-01-14T08:11:26.409Z,91.06
2018-01-14T08:12:26.381Z,90.96
2018-01-14T08:13:26.351Z,90.59
2018-01-14T08:14:26.321Z,90.49
2018-01-14T08:15:26.292Z,90.40
2018-01-14T08:16:26.263Z,90.30
2018-01-14T08:17:26.233Z,90.59
2018-01-14T08:18:26.205Z,90.87
2018-01-14T08:19:26.173Z,90.87
2018-01-14T08:20:26.144Z,90.77
2018-01-14T08:21:26.116Z,90.77
2018-01-14T08:22:26.084Z,91.06
2018-01-14T08:23:26.055Z,90.87
2018-01-14T08:24:26.027Z,90.40
2018-01-14T08:25:25.996Z,90.68
2018-01-14T08:26:25.966Z,90.77
2018-01-14T08:27:25.937Z,90.77
2018-01-14T08:28:25.913Z,90.59
2018-01-14T08:29:25.880Z,90.49
2018-01-14T08:30:25.847Z,90.59
2018-01-14T08:31:25.819Z,89.83
2018-01-14T08:32:25.789Z,89.92
2018-01-14T08:33:25.758Z,90.49
2018-01-14T08:34:25.729Z,89.92
2018-01-14T08:35:25.701Z,90.49
2018-01-14T08:36:25.671Z,90.49
2018-01-14T08:37:25.643Z,90.77
2018-01-14T08:38:25.612Z,90.59
2018-01-14T08:39:25.583Z,91.15
2018-01-14T08:40:25.552Z,90.30
2018-01-14T08:41:25.523Z,90.40
2018-01-14T08:42:25.494Z,90.40
2018-01-14T08:43:25.464Z,90.49
2018-01-14T08:44:25.436Z,90.96
2018-01-14T08:45:25.655Z,90.77
2018-01-14T08:46:25.375Z,90.77
2018-01-14T08:47:25.346Z,90.77
2018-01-14T08:48:25.317Z,90.68
2018-01-14T08:49:25.289Z,90.02
2018-01-14T08:50:25.259Z,90.68
2018-01-14T08:51:25.230Z,90.68
2018-01-14T08:52:25.201Z,89.92
2018-01-14T08:53:25.172Z,90.49
2018-01-14T08:54:25.142Z,90.02
2018-01-14T08:55:25.113Z,89.92
2018-01-14T08:56:25.084Z,90.21
2018-01-14T08:57:25.055Z,89.92
2018-01-14T08:58:25.027Z,90.02
2018-01-14T08:59:24.997Z,89.73
2018-01-14T09:00:24.970Z,90.11
2018-01-14T09:01:24.941Z,89.87
2018-01-14T09:02:24.912Z,90.35
2018-01-14T09:03:24.885Z,90.35
2018-01-14T09:04:24.858Z,89.59
2018-01-14T09:05:24.829Z,89.31
2018-01-14T09:06:24.801Z,88.93
2018-01-14T09:07:24.775Z,88.17
2018-01-14T09:08:24.746Z,88.08
2018-01-14T09:09:24.718Z,87.79
2018-01-14T09:10:24.693Z,87.42
2018-01-14T09:11:24.666Z,87.70
2018-01-14T09:12:24.639Z,87.32
2018-01-14T09:13:24.910Z,87.61
2018-01-14T09:14:24.582Z,88.27
2018-01-14T09:15:24.555Z,88.17
2018-01-14T09:16:24.529Z,88.27
2018-01-14T09:17:24.502Z,87.89
2018-01-14T09:18:24.472Z,88.36
2018-01-14T09:19:24.445Z,88.46
2018-01-14T09:20:24.416Z,88.65
2018-01-14T09:21:24.390Z,88.65
2018-01-14T09:22:24.360Z,89.31
2018-01-14T09:23:24.332Z,88.46
2018-01-14T09:24:24.303Z,88.46
2018-01-14T09:25:24.276Z,88.36
2018-01-14T09:26:24.247Z,88.36
2018-01-14T09:27:24.220Z,88.36
2018-01-14T09:28:24.192Z,88.36
2018-01-14T09:29:24.163Z,88.36
2018-01-14T09:30:24.136Z,88.74
2018-01-14T09:31:24.107Z,88.46
2018-01-14T09:32:24.079Z,88.36
2018-01-14T09:33:24.051Z,87.89
2018-01-14T09:34:24.275Z,88.17
2018-01-14T09:35:23.993Z,88.17
2018-01-14T09:36:23.965Z,88.27
2018-01-14T09:37:23.939Z,87.89
2018-01-14T09:38:23.909Z,87.98
2018-01-14T09:39:23.881Z,88.46
2018-01-14T09:40:23.851Z,88.36
2018-01-14T09:41:23.823Z,88.46
2018-01-14T09:42:23.793Z,88.46
2018-01-14T09:43:23.767Z,87.89
2018-01-14T09:44:24.038Z,87.51
2018-01-14T09:45:23.709Z,87.79
2018-01-14T09:46:23.681Z,87.98
2018-01-14T09:47:23.652Z,88.36
2018-01-14T09:48:23.624Z,87.70
2018-01-14T09:49:23.595Z,87.42
2018-01-14T09:50:23.568Z,87.79
2018-01-14T09:51:23.540Z,87.70
2018-01-14T09:52:23.510Z,87.89
2018-01-14T09:53:23.480Z,88.08
2018-01-14T09:54:23.453Z,87.89
2018-01-14T09:55:23.428Z,87.42
2018-01-14T09:56:23.419Z,88.55
2018-01-14T09:57:23.367Z,87.89
2018-01-14T09:58:23.339Z,88.17
2018-01-14T09:59:23.310Z,88.55
2018-01-14T10:00:23.283Z,88.27
2018-01-14T10:01:23.255Z,88.84
2018-01-14T10:02:23.225Z,88.46
2018-01-14T10:03:23.197Z,87.89
2018-01-14T10:04:23.168Z,87.70
2018-01-14T10:05:23.140Z,87.89
2018-01-14T10:06:23.112Z,87.32
2018-01-14T10:07:23.085Z,88.27
2018-01-14T10:08:23.055Z,87.32
2018-01-14T10:09:23.040Z,88.08
2018-01-14T10:10:22.998Z,87.79
2018-01-14T10:11:22.970Z,87.61
2018-01-14T10:12:22.943Z,87.32
2018-01-14T10:13:22.914Z,87.79
2018-01-14T10:14:22.884Z,87.79
2018-01-14T10:15:23.161Z,87.61
2018-01-14T10:16:22.829Z,87.79
2018-01-14T10:17:22.799Z,87.42
2018-01-14T10:18:22.772Z,87.61
2018-01-14T10:19:22.744Z,87.79
2018-01-14T10:20:22.715Z,86.94
2018-01-14T10:21:22.837Z,87.08
2018-01-14T10:22:22.659Z,85.95
2018-01-14T10:23:22.631Z,86.23
2018-01-14T10:24:22.605Z,85.19
2018-01-14T10:25:22.576Z,84.34
2018-01-14T10:26:22.800Z,83.68
2018-01-14T10:27:22.525Z,82.54
2018-01-14T10:28:22.496Z,82.26
2018-01-14T10:29:22.469Z,82.92
2018-01-14T10:30:22.444Z,83.40
2018-01-14T10:31:22.722Z,83.30
2018-01-14T10:32:22.391Z,83.02
2018-01-14T10:33:22.364Z,83.21
2018-01-14T10:34:22.341Z,83.40
2018-01-14T10:35:22.314Z,83.21
2018-01-14T10:36:22.288Z,83.68
2018-01-14T10:37:22.261Z,84.44
2018-01-14T10:38:22.238Z,84.44
2018-01-14T10:39:22.211Z,84.16
2018-01-14T10:40:22.186Z,84.25
2018-01-14T10:41:22.309Z,84.06
2018-01-14T10:42:22.133Z,84.63
2018-01-14T10:43:22.110Z,84.06
2018-01-14T10:44:22.089Z,84.25
2018-01-14T10:45:22.059Z,84.25
2018-01-14T10:46:22.034Z,84.44
2018-01-14T10:47:22.008Z,84.34
2018-01-14T10:48:21.984Z,84.34
2018-01-14T10:49:21.958Z,84.34
2018-01-14T10:50:21.934Z,84.16
2018-01-14T10:51:21.908Z,83.87
2018-01-14T10:52:21.885Z,84.53
2018-01-14T10:53:21.858Z,85.00
2018-01-14T10:54:21.836Z,84.63
2018-01-14T10:55:21.810Z,84.81
2018-01-14T10:56:21.785Z,85.38
2018-01-14T10:57:21.759Z,84.63
2018-01-14T10:58:21.734Z,84.53
2018-01-14T10:59:21.710Z,84.44
2018-01-14T11:00:21.684Z,84.63
2018-01-14T11:01:21.659Z,84.63
2018-01-14T11:02:21.636Z,84.81
2018-01-14T11:03:21.611Z,84.81
2018-01-14T11:04:21.587Z,84.72
2018-01-14T11:05:21.561Z,84.25
2018-01-14T11:06:21.537Z,84.72
2018-01-14T11:07:21.513Z,84.34
2018-01-14T11:08:21.491Z,84.34
2018-01-14T11:09:21.463Z,84.44
2018-01-14T11:10:21.441Z,84.34
2018-01-14T11:11:21.415Z,84.25
2018-01-14T11:12:21.390Z,84.06
2018-01-14T11:13:21.365Z,84.34
2018-01-14T11:14:21.341Z,83.49
2018-01-14T11:15:21.316Z,83.59
2018-01-14T11:16:21.292Z,83.68
2018-01-14T11:17:21.272Z,83.78
2018-01-14T11:18:21.243Z,83.59
2018-01-14T11:19:21.218Z,83.68
2018-01-14T11:20:21.194Z,83.30
2018-01-14T11:21:21.170Z,83.78
2018-01-14T11:22:21.146Z,83.97
2018-01-14T11:23:21.122Z,83.78
2018-01-14T11:24:21.098Z,84.06
2018-01-14T11:25:21.072Z,83.97
2018-01-14T11:26:21.048Z,83.30
2018-01-14T11:27:21.023Z,83.49
2018-01-14T11:28:20.999Z,83.87
2018-01-14T11:29:20.975Z,83.49
2018-01-14T11:30:21.051Z,83.02
2018-01-14T11:31:20.925Z,83.49
2018-01-14T11:32:20.902Z,83.02
2018-01-14T11:33:20.877Z,83.30
2018-01-14T11:34:20.853Z,83.49
2018-01-14T11:35:20.827Z,83.97
2018-01-14T11:36:20.804Z,83.49
2018-01-14T11:37:20.779Z,83.59
2018-01-14T11:38:20.754Z,83.97
2018-01-14T11:39:20.732Z,83.87
2018-01-14T11:40:21.007Z,83.68
2018-01-14T11:41:20.681Z,83.21
2018-01-14T11:42:20.658Z,83.40
2018-01-14T11:43:20.633Z,83.25
2018-01-14T11:44:20.609Z,82.73
2018-01-14T11:45:20.584Z,82.78
2018-01-14T11:46:20.560Z,82.87
2018-01-14T11:47:20.537Z,83.44
2018-01-14T11:48:20.512Z,83.15
2018-01-14T11:49:20.488Z,83.63
2018-01-14T11:50:20.464Z,82.21
2018-01-14T11:51:20.439Z,82.31
2018-01-14T11:52:20.416Z,82.59
2018-01-14T11:53:20.394Z,82.87
2018-01-14T11:54:20.367Z,82.21
2018-01-14T11:55:20.342Z,82.68
2018-01-14T11:56:20.318Z,82.50
2018-01-14T11:57:20.294Z,82.12
2018-01-14T11:58:20.269Z,82.21
2018-01-14T11:59:20.245Z,81.64
2018-01-14T12:00:20.320Z,82.40
2018-01-14T12:01:20.196Z,82.87
2018-01-14T12:02:20.171Z,82.97
2018-01-14T12:03:20.148Z,82.87
2018-01-14T12:04:20.124Z,82.12
2018-01-14T12:05:20.299Z,82.50
2018-01-14T12:06:20.075Z,81.93
2018-01-14T12:07:20.050Z,82.21
2018-01-14T12:08:20.024Z,81.74
2018-01-14T12:09:19.999Z,82.31
2018-01-14T12:10:20.076Z,81.83
2018-01-14T12:11:19.952Z,81.64
2018-01-14T12:12:19.928Z,82.40
2018-01-14T12:13:19.901Z,81.83
2018-01-14T12:14:19.877Z,81.93
2018-01-14T12:15:20.103Z,82.02
2018-01-14T12:16:19.829Z,81.26
2018-01-14T12:17:19.804Z,81.64
2018-01-14T12:18:19.778Z,81.93
2018-01-14T12:19:19.755Z,81.74
2018-01-14T12:20:19.730Z,82.78
2018-01-14T12:21:19.963Z,82.78
2018-01-14T12:22:19.680Z,82.50
2018-01-14T12:23:19.655Z,82.50
2018-01-14T12:24:19.630Z,82.31
2018-01-14T12:25:19.606Z,81.64
2018-01-14T12:26:19.581Z,82.50
2018-01-14T12:27:19.557Z,82.78
2018-01-14T12:28:19.532Z,82.78
2018-01-14T12:29:19.506Z,81.83
2018-01-14T12:30:19.483Z,81.55
2018-01-14T12:31:19.708Z,81.45
2018-01-14T12:32:19.433Z,81.74
2018-01-14T12:33:19.412Z,81.64
2018-01-14T12:34:19.384Z,81.74
2018-01-14T12:35:19.360Z,82.12
2018-01-14T12:36:19.587Z,82.21
2018-01-14T12:37:19.311Z,82.40
2018-01-14T12:38:19.285Z,81.64
2018-01-14T12:39:19.261Z,82.12
2018-01-14T12:40:19.236Z,81.64
2018-01-14T12:41:19.213Z,81.64
2018-01-14T12:42:19.189Z,80.88
2018-01-14T12:43:19.164Z,80.98
2018-01-14T12:44:19.139Z,81.93
2018-01-14T12:45:19.113Z,81.45
2018-01-14T12:46:19.089Z,81.26
2018-01-14T12:47:19.065Z,81.74
2018-01-14T12:48:19.041Z,81.55
2018-01-14T12:49:19.015Z,81.45
2018-01-14T12:50:18.989Z,81.36
2018-01-14T12:51:18.965Z,81.55
2018-01-14T12:52:18.940Z,81.64